LiveATC.Net - Listen to live air traffic control over the Internet!

Find LiveATC Audio Streams


Airport/ARTCC Code

Frequency Search
(e.g., 124.400, 128.75)
Site-wide search
 


Browse LiveATC Feeds
LiveATC Coverage Map
Top 50 LiveATC Feeds
Bad Weather Areas

LiveATC FAQ
Offer a LiveATC Feed
Contact LiveATC.net
Press Inquiries

LiveATC on iPhone
LiveATC on Android

Windows Phone
Windows 8/10

LiveATC Mobile
(Mobile browser)

ATC Audio Archives
Interesting Recordings

LiveATC Forums

Home Page
About LiveATC.net
Make a Donation
LiveATC Store

Terms of Use
Privacy Policy

Canadian Air Freqs

AIRMETs/SIGMETs

FAA Airport Status
Nat'l Airspace Status
Arrival Demand Charts


Server Software By:
Icecast.org
Liquidsoap


Current Potentially Bad Weather Airports
(updated every 30 minutes - sorted alphabetically by ICAO code)



This page lists LiveATC.net airport areas that may be interesting to listen to because of challenging flying (weather) conditions. Challenging weather conditions include low ceilings, limited visibility, high or gusty winds, or thunderstorms.

Updated: Sat May 27 06:10:01 UTC 2017
Click on airport name to go to that airport area's feeds.

CYHZ Del/Gnd/Twr Halifax International Airport (Halifax, CA-NS)
WX MAP UNAVAILABLENearest METAR:
CYHZ 270500Z 04007KT 1/4SM R23/4000FT/D R14/4000V5500FT/D FG VV001 06/06 A2955 RMK FG8 SLP012
CYQI/CZQM CTAF/FIC/Center Yarmouth Airport (Yarmouth, CA-NS)
WX MAP UNAVAILABLENearest METAR:
CYQI 270555Z VRB02KT 2SM BR OVC001 10/10 A2956 RMK ST8 SLP011
CYQM App/Dep Greater Moncton International Airport (Moncton, CA-NB)
cyqmNearest METAR:
CYQM 270500Z 03013G19KT 2 1/2SM -DZ BR OVC005 06/05 A2965 RMK SF8 SLP043
CYYT Gnd/Twr/Gander Center St. John's International Airport (St. John's, CA-NL)
WX MAP UNAVAILABLENearest METAR:
CYYT 270500Z 08009KT 1/4SM R11/1200FT/N R16/1400FT/N FG VV001 01/00 A2990 RMK FG8 SLP132
EIKN Gnd/Twr/App Ireland West Airport Knock (Charlestown, Ireland)
WX MAP UNAVAILABLENearest METAR:
EIKN 270530Z 34009KT 0300 -RADZ FG VV002 13/12 Q1009 NOSIG
ENOR Sector 8 Moss Airport - Rygge (Moss, Norway)
WX MAP UNAVAILABLENearest METAR:
ENRY 270550Z AUTO 20005KT 1000NDV R12/0900VP2000N R30/1100VP2000N OVC001/// 13/12 Q1020
ENTO Tower/App Sandefjord Airport - Torp (Sandefjord, Norway)
WX MAP UNAVAILABLENearest METAR:
ENTO 270550Z 16004KT 0500 R18/1200D R36/0450N FG VV002 13/13 Q1020
KBGR Del/Gnd/Twr Bangor International Airport (Bangor, US-ME)
kbgrNearest METAR:
KBGR 270553Z 35008KT 2 1/2SM -DZ BR OVC007 09/09 A2971 RMK AO2 DZE0456B42 CIG 005V012 SLP061 P0001 60002 T00890089 10100 20089 51006
KBOK CTAF Brookings Airport (Brookings, US-OR)
kbokNearest METAR:
KBOK 270556Z AUTO 00000KT 10SM OVC008 11/10 A3008 RMK AO2 SLP201 T01110100 10128 20111 51004
KCID Del/Gnd/Twr/App The Eastern Iowa Airport (Cedar Rapids, US-IA)
kcidNearest METAR:
KCID 270552Z AUTO 16003KT M1/4SM FG VV002 13/13 A2987 RMK AO2 SLP115 T01280128 10194 20128 402000122 51009
KCOS Gnd/Twr/App/Dep City of Colorado Springs Municipal Airport (Colorado Springs, US-CO)
kcosNearest METAR:
KCOS 270554Z 36022G33KT 10SM CLR 12/06 A3001 RMK AO2 PK WND 34037/0528 SLP102 60000 T01170061 10222 20117 53036
KFYV Gnd/Twr/App/ZME Drake Field Airport (Fayetteville, US-AR)
kfyvNearest METAR:
KFYV 270553Z AUTO 17003KT 10SM SCT040 SCT055 24/23 A2984 RMK AO2 LTG DSNT NE SLP089 T02390228 10272 20233 402940200 51005
KGRR Gnd/Twr/App Gerald R. Ford International Airport (Grand Rapids, US-MI)
kgrrNearest METAR:
KGRR 270553Z AUTO 36005KT 2 1/2SM BR FEW095 15/15 A2987 RMK AO2 SLP111 60003 T01500150 10200 20150 55002
KHRO CTAF/ZME/Misc Boone County Airport (Harrison, US-AR)
khroNearest METAR:
KHRO 270553Z AUTO 18005KT 9SM CLR 23/22 A2984 RMK AO2 LTG DSNT W AND NW SLP091 T02280217 10272 20222 402830167 58001
KJLN Ground/Tower Joplin Regional Airport (Joplin, US-MO)
kjlnNearest METAR:
KJLN 270553Z AUTO 08005KT 10SM SCT040 BKN049 BKN060 23/21 A2983 RMK AO2 LTG DSNT SE AND S SLP091 T02330206 10294 20228 403000183 51004
KMLI Del/Gnd/Twr/App Quad City International Airport (Moline, US-IL)
kmliNearest METAR:
KMLI 270552Z AUTO 01004KT 6SM BR OVC009 16/14 A2988 RMK AO2 SLP117 T01610139 10194 20161 402280133 51015
KPKB Gnd/Twr/Unicom Mid-Ohio Valley Regional Airport (Parkersburg, US-WV)
kpkbNearest METAR:
KPKB 270558Z AUTO 10006KT 3SM VCTS RA BR FEW039 BKN048 OVC080 16/14 A2994 RMK AO2 LTG DSNT ALQDS P0001 T01560144
KPUB App/Dep (Denver App) Pueblo Memorial Airport (Pueblo, US-CO)
kpubNearest METAR:
KPUB 270553Z AUTO 36027G33KT 10SM CLR 17/07 A2986 RMK AO2 PK WND 36033/0552 SLP057 T01720072 10289 20133 51028
KSGF Ground/Tower Springfield-Branson National Airport (Springfield, US-MO)
ksgfNearest METAR:
KSGF 270552Z 06004KT 10SM SCT038 23/21 A2983 RMK AO2 LTG DSNT S PRESFR SLP089 T02330211 10272 20228 402830194 58002
KUES Gnd/Twr Waukesha County Airport (Waukesha, US-WI)
kuesNearest METAR:
KUES 270535Z AUTO 00000KT 1/2SM FG VV005 10/10 A2990 RMK AO2
KUGN Tower Waukegan Regional Airport (Chicago/Waukegan, US-IL)
kugnNearest METAR:
KUGN 270555Z AUTO 01003KT 2 1/2SM BR CLR 10/10 A2987 RMK AO2 SLP116 60002 T01000100 10133 20100 401610083 53006
LFBZ Tower Anglet Airport (Biarritz, France)
WX MAP UNAVAILABLENearest METAR:
LFBZ 270530Z AUTO VRB02KT 7000 OVC008 16/16 Q1016 TEMPO 4000 BR BECMG NSC
LPLA Gnd/Twr/App Lajes Field (Lajes, Portugal)
WX MAP UNAVAILABLENearest METAR:
LPLA 270500Z 29028G44KT 9999 -SHRA FEW011 SCT015 15/14 Q1001
SBCT Twr/App Afonso Pena Airport (Curitiba, Brazil)
WX MAP UNAVAILABLENearest METAR:
SBCT 270500Z 13006KT 0800 R15/0800 R33/0800 FG VV001 19/18 Q102 3
YMML/YMMB/YMEN Essendon Airport (Essendon, AU-VIC)
WX MAP UNAVAILABLENearest METAR:
YMML 270530Z 01016KT 9999 FEW039 SCT220 BKN250 16/09 Q1011 FM0530 MOD TURB BLW 5000FT TILL 0600 FM0600 MOD/SEV TURB BLW 5000FT